Aeroporto :
LOGIN :

Iscrizione | Disclaimer

   EN    FR    IT 

 










Sommario :    VFR   VFR Marginale   IFR   IFR Intensivo   IFR Molto Intensivo
Visibilità : 
Base nubi : 
>= 8 km
>= 3000ft
5 / 8 km
1000 / 3000 ft
1500m / 5 km
500 / 1000 ft
800 / 1500m
200 / 500 ft
< 800m
< 200 ft
Simboli :   Temporali  Nebbia  Neve Forte  Precipitazioni Forti  Vento > 20 kt
SIGMETs :   Varie  Temporali  Ghiacco  Turbolenza  Onda orograficha  Ceneri Vulcaniche






- Altitudine del aeroporto : 1776 ft
- Codice IATA : BWK


LDSB - Bol

ULTIMO METAR :
  • 071300Z 15004KT CAVOK 18/M07 Q1027

METARs OBSOLETI :
  • 071230Z 08008KT 030V120 CAVOK 17/M06 Q1027
  • 071200Z 09006KT 030V140 CAVOK 18/M07 Q1027
  • 071130Z 11006KT 060V160 CAVOK 17/M06 Q1027

TAF TAF LDSB
Valido dal 07 a 12 ore il 08 a 12 ore UTC


071125Z 0712/0812 22007KT CAVOK TX19/0713Z TN08/0804Z
BECMG 0720/0722 03007KT



MetMap, La meteo Aeronautica in un colpo d'occhio ! - Copyright ORBIFLY Dicembre 2007 - Disclaimer

ORBIFLY MET'MAP TEAM :

Programmazione e sviluppo : Alexandra Zaïnal
Concezione : Baudouin d'Aumeries
Aiuto per la programmazione : Marc-Olivier Méhu
Supporto tecnico e logistico : Manuel Goepfert
Aiuto per la traduzione : Arnaldo La Scala

Contatto : metmap@orbifly.com




FONTI E CREDITI :

   NOAA